Time;durP1;ratioP1;P1;durP2;ratioP2;P2;SDS_P1;SDS_P2;PMS_P1;PMS_P2;Temp;Humidity;BMP_temperature;BMP_pressure;BME280_temperature;BME280_humidity;BME280_pressure;Samples;Min_cycle;Max_cycle;Signal;HPM_P1;HPM_P2
2022/03/14 00:00:30;;;;;;;31.45;17.65;;;22.80;31.60;;;;;;6133874;28;84279;-65
2022/03/14 00:03:41;;;;;;;32.40;16.50;;;22.80;31.30;;;;;;6139887;28;83015;-65
2022/03/14 00:06:43;;;;;;;30.92;16.77;;;22.80;31.60;;;;;;6142292;28;83494;-65
2022/03/14 00:09:43;;;;;;;31.73;17.02;;;22.80;31.30;;;;;;6146195;28;83354;-65
2022/03/14 00:12:44;;;;;;;33.28;16.95;;;22.80;31.20;;;;;;6135976;28;83697;-65
2022/03/14 00:15:45;;;;;;;32.80;17.20;;;22.80;31.30;;;;;;6132799;28;83910;-64
2022/03/14 00:18:48;;;;;;;28.35;16.23;;;22.70;31.50;;;;;;6132842;28;83271;-65
2022/03/14 00:21:49;;;;;;;32.63;16.48;;;22.70;31.30;;;;;;6132724;28;83315;-65
2022/03/14 00:24:49;;;;;;;35.70;17.10;;;22.70;31.30;;;;;;6144910;28;83565;-66
2022/03/14 00:27:50;;;;;;;30.17;15.82;;;22.70;31.50;;;;;;6157488;28;83189;-65
2022/03/14 00:30:50;;;;;;;32.90;17.27;;;22.70;31.80;;;;;;6137598;28;82999;-65
2022/03/14 00:33:51;;;;;;;32.65;16.42;;;22.70;31.60;;;;;;6132722;28;83158;-65
2022/03/14 00:36:51;;;;;;;28.98;15.68;;;22.70;31.50;;;;;;6152291;28;85234;-64
2022/03/14 00:39:53;;;;;;;28.50;15.07;;;22.70;31.10;;;;;;6149644;28;84184;-65
2022/03/14 00:42:53;;;;;;;27.35;15.00;;;22.70;31.90;;;;;;6154953;28;84297;-63
2022/03/14 00:45:54;;;;;;;27.77;14.52;;;22.70;31.80;;;;;;6147658;28;82959;-64
2022/03/14 00:48:55;;;;;;;27.17;15.77;;;22.70;32.00;;;;;;6136428;28;83018;-64
2022/03/14 00:51:56;;;;;;;27.25;15.02;;;22.70;32.20;;;;;;6152606;28;83218;-65
2022/03/14 00:54:56;;;;;;;30.13;14.38;;;22.70;32.00;;;;;;6136879;28;83242;-65
2022/03/14 00:57:57;;;;;;;29.33;15.85;;;22.70;31.40;;;;;;6156725;28;83980;-65
2022/03/14 01:00:57;;;;;;;30.77;15.40;;;22.60;31.80;;;;;;6144907;28;83029;-65
2022/03/14 01:03:59;;;;;;;26.42;14.57;;;22.60;32.40;;;;;;6155661;28;83188;-67
2022/03/14 01:07:00;;;;;;;29.13;14.63;;;22.60;31.80;;;;;;6139269;28;83457;-66
2022/03/14 01:10:00;;;;;;;27.33;15.13;;;22.60;31.50;;;;;;6132915;28;83057;-67
2022/03/14 01:13:04;;;;;;;22.13;13.45;;;22.60;32.10;;;;;;6156712;28;84905;-67
2022/03/14 01:16:05;;;;;;;27.10;14.10;;;22.60;32.30;;;;;;6155950;28;84181;-66
2022/03/14 01:19:06;;;;;;;25.10;14.85;;;22.60;31.40;;;;;;6137975;28;84633;-66
2022/03/14 01:22:10;;;;;;;28.67;16.48;;;22.60;31.80;;;;;;6155876;28;84640;-66
2022/03/14 01:25:10;;;;;;;26.75;14.70;;;22.60;31.20;;;;;;6156401;28;83005;-66
2022/03/14 01:28:11;;;;;;;30.48;16.48;;;22.70;31.10;;;;;;6156341;28;83099;-66
2022/03/14 01:31:11;;;;;;;33.42;15.07;;;22.70;31.20;;;;;;6139118;28;82894;-66
2022/03/14 01:34:13;;;;;;;31.85;16.23;;;22.70;31.10;;;;;;6132329;28;83007;-66
2022/03/14 01:37:14;;;;;;;31.45;16.30;;;22.80;31.10;;;;;;6133950;28;84827;-66
2022/03/14 01:40:14;;;;;;;27.85;15.63;;;22.80;30.80;;;;;;6156301;28;84415;-67
2022/03/14 01:43:16;;;;;;;30.23;16.23;;;22.90;30.70;;;;;;6152422;28;84403;-67
2022/03/14 01:46:16;;;;;;;28.38;15.13;;;22.90;30.60;;;;;;6150581;28;84216;-67
2022/03/14 01:49:18;;;;;;;32.55;17.30;;;22.90;30.50;;;;;;6135296;28;84351;-67
2022/03/14 01:52:20;;;;;;;29.90;16.58;;;23.00;30.40;;;;;;6134491;28;84260;-67
2022/03/14 01:55:20;;;;;;;27.45;14.77;;;23.00;30.30;;;;;;6154044;28;87608;-67
2022/03/14 01:58:21;;;;;;;26.98;15.50;;;23.10;30.40;;;;;;6144500;28;84551;-66
2022/03/14 02:01:21;;;;;;;29.13;16.50;;;23.10;30.30;;;;;;6134597;28;83196;-66
2022/03/14 02:04:22;;;;;;;29.52;15.90;;;23.10;30.10;;;;;;6155404;28;83986;-66
2022/03/14 02:07:23;;;;;;;30.23;17.48;;;23.10;30.00;;;;;;6153874;28;85794;-66
2022/03/14 02:10:23;;;;;;;31.02;16.67;;;23.10;30.00;;;;;;6137367;28;84324;-66
2022/03/14 02:13:24;;;;;;;29.50;16.85;;;23.10;30.00;;;;;;6131251;28;82727;-64
2022/03/14 02:16:25;;;;;;;35.75;18.30;;;23.20;30.00;;;;;;6144079;28;83534;-64
2022/03/14 02:19:26;;;;;;;32.35;18.05;;;23.10;30.50;;;;;;6154863;28;84654;-65
2022/03/14 02:22:26;;;;;;;32.97;18.17;;;23.20;30.30;;;;;;6131712;28;84257;-66
2022/03/14 02:25:27;;;;;;;30.13;17.25;;;23.20;30.30;;;;;;6131152;28;82909;-66
2022/03/14 02:28:27;;;;;;;29.10;16.75;;;23.20;29.80;;;;;;6136366;28;82947;-65
2022/03/14 02:31:29;;;;;;;30.20;17.60;;;23.20;29.70;;;;;;6159846;28;84145;-65
2022/03/14 02:34:29;;;;;;;31.15;17.58;;;23.20;29.60;;;;;;6147498;28;82694;-65
2022/03/14 02:37:30;;;;;;;28.42;16.92;;;23.20;29.50;;;;;;6159879;28;83503;-65
2022/03/14 02:40:31;;;;;;;31.00;17.13;;;23.20;29.50;;;;;;6151549;28;83214;-65
2022/03/14 02:43:31;;;;;;;34.53;18.08;;;23.10;29.50;;;;;;6159423;28;83077;-65
2022/03/14 02:46:34;;;;;;;32.63;17.85;;;23.10;29.50;;;;;;6151713;28;83891;-65
2022/03/14 02:49:34;;;;;;;32.72;18.58;;;23.10;29.60;;;;;;6140388;28;84340;-65
2022/03/14 02:52:35;;;;;;;33.00;17.48;;;23.10;29.50;;;;;;6153006;28;83293;-65
2022/03/14 02:55:35;;;;;;;35.50;18.60;;;23.10;29.50;;;;;;6155033;28;83003;-66
2022/03/14 02:58:39;;;;;;;31.80;18.33;;;23.10;29.60;;;;;;6151055;28;84296;-66
2022/03/14 03:01:40;;;;;;;31.38;18.02;;;23.00;29.60;;;;;;6150490;28;83643;-65
2022/03/14 03:04:40;;;;;;;32.05;17.98;;;23.00;29.60;;;;;;6136248;28;82886;-65
2022/03/14 03:07:41;;;;;;;34.28;18.92;;;23.00;29.60;;;;;;6156206;28;83481;-66
2022/03/14 03:10:42;;;;;;;31.83;17.77;;;23.00;29.60;;;;;;6154458;28;83047;-66
2022/03/14 03:13:42;;;;;;;32.45;17.58;;;23.00;29.60;;;;;;6147723;28;84313;-65
2022/03/14 03:16:43;;;;;;;31.67;17.83;;;23.00;29.60;;;;;;6158225;28;83006;-66
2022/03/14 03:19:44;;;;;;;35.10;19.13;;;22.90;29.50;;;;;;6136674;28;82870;-66
2022/03/14 03:22:44;;;;;;;33.28;18.85;;;22.90;29.50;;;;;;6133796;28;83088;-68
2022/03/14 03:25:45;;;;;;;35.42;17.98;;;22.90;29.60;;;;;;6134482;28;83125;-66
2022/03/14 03:28:47;;;;;;;33.95;18.35;;;22.90;29.50;;;;;;6145817;28;84078;-66
2022/03/14 03:31:47;;;;;;;33.88;18.55;;;22.90;29.70;;;;;;6158235;28;83366;-66
2022/03/14 03:34:48;;;;;;;36.28;17.65;;;22.80;29.70;;;;;;6157147;28;84794;-66
2022/03/14 03:37:48;;;;;;;33.05;17.85;;;22.80;29.90;;;;;;6157119;28;83680;-66
2022/03/14 03:40:49;;;;;;;33.28;17.95;;;22.80;30.00;;;;;;6150045;28;83945;-66
2022/03/14 03:43:49;;;;;;;32.47;18.73;;;22.80;30.10;;;;;;6133754;28;84408;-65
2022/03/14 03:46:50;;;;;;;31.88;17.98;;;22.80;30.20;;;;;;6148607;28;83772;-65
2022/03/14 03:49:50;;;;;;;31.60;17.58;;;22.80;30.20;;;;;;6156322;28;83102;-66
2022/03/14 03:52:51;;;;;;;36.38;17.83;;;22.70;30.50;;;;;;6135382;28;83184;-66
2022/03/14 03:55:51;;;;;;;34.35;17.95;;;22.70;30.70;;;;;;6136538;28;82805;-66
2022/03/14 03:58:54;;;;;;;27.73;16.63;;;22.70;30.40;;;;;;6152507;28;83178;-65
2022/03/14 04:01:55;;;;;;;35.60;18.70;;;22.60;30.80;;;;;;6151565;28;84172;-66
2022/03/14 04:04:59;;;;;;;35.67;17.98;;;22.60;30.60;;;;;;6152590;28;84070;-67
2022/03/14 04:08:02;;;;;;;29.67;16.60;;;22.60;30.70;;;;;;6134067;28;84720;-67
2022/03/14 04:11:04;;;;;;;32.53;17.98;;;22.60;30.50;;;;;;6149668;28;83352;-66
2022/03/14 04:14:05;;;;;;;34.80;19.05;;;22.60;30.40;;;;;;6131470;28;83232;-66
2022/03/14 04:17:07;;;;;;;37.75;20.27;;;22.60;30.10;;;;;;6143466;28;84557;-64
2022/03/14 04:20:08;;;;;;;35.40;19.27;;;22.60;30.20;;;;;;6155332;28;86367;-64
2022/03/14 04:23:08;;;;;;;40.55;19.02;;;22.60;30.30;;;;;;6149826;28;83159;-63
2022/03/14 04:26:09;;;;;;;57.35;18.92;;;22.70;30.00;;;;;;6133653;28;85163;-64
2022/03/14 04:29:10;;;;;;;39.78;20.90;;;22.70;30.40;;;;;;6137407;28;84005;-65
2022/03/14 04:32:10;;;;;;;36.78;18.48;;;22.70;30.30;;;;;;6146107;28;82992;-65
2022/03/14 04:35:11;;;;;;;37.80;18.95;;;22.80;30.80;;;;;;6156633;28;84575;-67
2022/03/14 04:38:12;;;;;;;34.65;19.45;;;22.80;30.10;;;;;;6144970;28;83075;-64
2022/03/14 04:41:13;;;;;;;36.45;18.63;;;22.80;30.00;;;;;;6150357;28;83077;-66
2022/03/14 04:44:14;;;;;;;36.83;18.40;;;22.90;30.00;;;;;;6140346;28;90473;-66
2022/03/14 04:47:14;;;;;;;36.92;20.92;;;22.90;30.00;;;;;;6138045;28;83057;-64
2022/03/14 04:50:16;;;;;;;35.95;19.52;;;22.90;30.00;;;;;;6132963;28;82961;-63
2022/03/14 04:53:17;;;;;;;39.92;19.00;;;22.90;30.00;;;;;;6133540;28;84035;-62
2022/03/14 04:56:17;;;;;;;33.85;18.98;;;23.00;30.00;;;;;;6150773;28;83441;-66
2022/03/14 04:59:18;;;;;;;33.67;18.65;;;23.00;29.90;;;;;;6132533;28;83475;-67
2022/03/14 05:02:19;;;;;;;37.47;18.65;;;23.00;29.80;;;;;;6144849;28;84098;-64
2022/03/14 05:05:20;;;;;;;40.72;20.13;;;23.00;29.80;;;;;;6141822;28;83258;-67
2022/03/14 05:08:20;;;;;;;37.35;18.98;;;23.00;30.00;;;;;;6156149;28;83028;-67
2022/03/14 05:11:21;;;;;;;38.55;20.17;;;23.00;30.00;;;;;;6147045;28;83192;-67
2022/03/14 05:14:21;;;;;;;34.13;18.95;;;23.00;30.20;;;;;;6156474;28;82957;-67
2022/03/14 05:17:22;;;;;;;34.58;18.70;;;23.10;30.60;;;;;;6154271;28;83229;-67
2022/03/14 05:20:22;;;;;;;34.58;17.88;;;23.10;30.60;;;;;;6150725;28;83025;-66
2022/03/14 05:23:24;;;;;;;35.75;17.92;;;23.10;30.90;;;;;;6132208;28;83103;-67
2022/03/14 05:26:25;;;;;;;33.88;16.23;;;23.10;31.40;;;;;;6132442;28;82997;-67
2022/03/14 05:29:25;;;;;;;31.20;14.70;;;23.10;32.00;;;;;;6135601;28;84154;-68
2022/03/14 05:32:26;;;;;;;37.00;15.20;;;23.10;33.00;;;;;;6153026;28;84138;-67
2022/03/14 05:35:27;;;;;;;25.83;13.73;;;23.10;33.00;;;;;;6144800;28;85131;-65
2022/03/14 05:38:28;;;;;;;25.75;13.15;;;23.10;33.00;;;;;;6151725;28;83399;-65
2022/03/14 05:41:29;;;;;;;26.00;14.60;;;23.10;33.40;;;;;;6138283;28;83848;-65
2022/03/14 05:44:29;;;;;;;25.17;13.15;;;23.20;33.60;;;;;;6146915;28;83113;-66
2022/03/14 05:47:30;;;;;;;24.27;13.40;;;23.10;33.60;;;;;;6139999;28;83220;-64
2022/03/14 05:50:31;;;;;;;25.70;12.77;;;23.20;33.80;;;;;;6149913;28;83792;-66
2022/03/14 05:53:31;;;;;;;23.83;13.02;;;23.20;33.80;;;;;;6141331;28;83629;-65
2022/03/14 05:56:32;;;;;;;26.95;13.85;;;23.20;33.80;;;;;;6133384;28;83646;-64
2022/03/14 05:59:34;;;;;;;23.42;12.70;;;23.20;33.80;;;;;;6156174;28;83151;-65
2022/03/14 06:02:35;;;;;;;23.30;13.10;;;23.20;33.60;;;;;;6132239;28;83170;-65
2022/03/14 06:05:35;;;;;;;22.40;13.02;;;23.20;33.60;;;;;;6132087;28;82986;-66
2022/03/14 06:08:36;;;;;;;22.88;12.38;;;23.20;33.60;;;;;;6132187;28;83437;-66
2022/03/14 06:11:38;;;;;;;21.42;12.40;;;23.20;34.90;;;;;;6151062;28;82871;-67
2022/03/14 06:14:39;;;;;;;22.42;12.63;;;23.20;33.80;;;;;;6155625;28;90205;-66
2022/03/14 06:17:41;;;;;;;25.58;13.00;;;23.10;33.80;;;;;;6156423;28;82851;-66
2022/03/14 06:20:42;;;;;;;21.98;12.00;;;23.10;33.90;;;;;;6156097;28;83227;-66
2022/03/14 06:23:42;;;;;;;22.42;12.65;;;23.20;34.70;;;;;;6155607;28;82939;-66
2022/03/14 06:26:43;;;;;;;23.80;13.63;;;23.20;34.50;;;;;;6147717;28;83101;-66
2022/03/14 06:29:43;;;;;;;24.20;13.73;;;23.10;34.80;;;;;;6155050;28;84506;-66
2022/03/14 06:32:44;;;;;;;23.90;12.13;;;23.10;34.90;;;;;;6152996;28;88286;-66
2022/03/14 06:35:44;;;;;;;25.58;13.57;;;23.10;34.90;;;;;;6155970;28;82863;-66
2022/03/14 06:38:45;;;;;;;26.48;13.68;;;23.10;35.00;;;;;;6155530;28;83341;-67
2022/03/14 06:41:47;;;;;;;21.50;12.90;;;23.10;35.00;;;;;;6143972;28;83386;-66
2022/03/14 06:44:50;;;;;;;22.73;12.48;;;23.10;35.30;;;;;;6144413;28;83275;-66
2022/03/14 06:47:51;;;;;;;20.98;11.73;;;23.10;35.10;;;;;;6152942;28;85127;-67
2022/03/14 06:50:51;;;;;;;22.52;12.55;;;23.10;35.30;;;;;;6136728;28;83976;-68
2022/03/14 06:53:52;;;;;;;27.05;12.63;;;23.10;35.70;;;;;;6149333;28;83403;-66
2022/03/14 06:56:53;;;;;;;20.92;11.40;;;23.10;35.60;;;;;;6138704;28;83061;-68
2022/03/14 06:59:54;;;;;;;21.80;12.40;;;23.10;35.50;;;;;;6146267;28;82994;-65
2022/03/14 07:02:54;;;;;;;22.45;12.48;;;23.10;35.70;;;;;;6131010;28;83564;-66
2022/03/14 07:05:55;;;;;;;20.85;11.73;;;23.10;35.50;;;;;;6137025;28;83647;-65
2022/03/14 07:08:55;;;;;;;21.27;11.75;;;23.20;36.50;;;;;;6141981;28;82856;-65
2022/03/14 07:11:56;;;;;;;20.50;12.05;;;23.10;35.80;;;;;;6140966;28;84186;-66
2022/03/14 07:14:56;;;;;;;20.08;12.00;;;23.20;36.20;;;;;;6138240;28;84283;-65
2022/03/14 07:17:57;;;;;;;24.13;12.27;;;23.20;36.50;;;;;;6144050;28;83110;-65
2022/03/14 07:20:57;;;;;;;21.70;10.52;;;23.20;36.30;;;;;;6150535;28;83243;-64
2022/03/14 07:23:58;;;;;;;20.30;11.95;;;23.30;36.50;;;;;;6153826;28;83473;-65
2022/03/14 07:26:58;;;;;;;19.88;11.32;;;23.30;36.70;;;;;;6151599;28;83019;-65
2022/03/14 07:29:59;;;;;;;21.23;11.60;;;23.30;36.80;;;;;;6147794;28;82979;-64
2022/03/14 07:32:59;;;;;;;18.90;11.15;;;23.30;35.80;;;;;;6148852;28;83005;-64
2022/03/14 07:36:00;;;;;;;19.33;12.23;;;23.30;36.60;;;;;;6155032;28;83126;-64
2022/03/14 07:39:00;;;;;;;19.58;11.50;;;23.30;36.30;;;;;;6145970;28;84258;-64
2022/03/14 07:42:01;;;;;;;20.67;11.82;;;23.40;36.90;;;;;;6144195;28;83346;-63
2022/03/14 07:45:02;;;;;;;23.67;12.10;;;23.40;36.90;;;;;;6148352;28;84116;-63
2022/03/14 07:48:03;;;;;;;22.85;12.25;;;23.40;36.20;;;;;;6157699;28;84505;-68
2022/03/14 07:51:03;;;;;;;24.02;12.45;;;23.40;36.20;;;;;;6157432;28;83816;-66
2022/03/14 07:54:04;;;;;;;21.63;12.55;;;23.40;36.30;;;;;;6141009;28;83921;-66
2022/03/14 07:57:04;;;;;;;22.23;11.60;;;23.40;36.50;;;;;;6132923;28;84416;-65
2022/03/14 08:00:05;;;;;;;20.73;11.45;;;23.50;36.90;;;;;;6133613;28;83323;-67
2022/03/14 08:03:15;;;;;;;19.60;11.50;;;23.50;36.60;;;;;;6151936;28;82957;-70
2022/03/14 08:06:23;;;;;;;26.27;12.18;;;23.50;37.00;;;;;;6153274;28;83343;-69
2022/03/14 08:09:23;;;;;;;22.58;12.02;;;23.50;37.20;;;;;;6157948;28;83349;-66
2022/03/14 08:12:24;;;;;;;25.15;13.40;;;23.60;38.40;;;;;;6148929;28;90056;-69
2022/03/14 08:15:24;;;;;;;24.63;11.85;;;23.60;38.80;;;;;;6157599;28;83055;-68
2022/03/14 08:18:25;;;;;;;23.95;11.68;;;23.60;38.80;;;;;;6146311;28;83124;-65
2022/03/14 08:21:25;;;;;;;25.65;12.77;;;23.60;38.80;;;;;;6148219;28;83919;-66
2022/03/14 08:24:26;;;;;;;26.27;13.20;;;23.60;39.20;;;;;;6142280;28;85394;-66
2022/03/14 08:27:27;;;;;;;24.73;13.73;;;23.60;38.40;;;;;;6155182;28;84331;-66
2022/03/14 08:30:27;;;;;;;24.23;12.50;;;23.60;38.00;;;;;;6157581;28;83017;-66
2022/03/14 08:33:28;;;;;;;26.40;13.38;;;23.70;38.10;;;;;;6157617;28;82975;-66
2022/03/14 08:36:29;;;;;;;22.48;12.40;;;23.70;38.10;;;;;;6141658;28;83032;-65
2022/03/14 08:39:31;;;;;;;24.60;13.63;;;23.70;38.60;;;;;;6154986;28;83129;-67
2022/03/14 08:42:32;;;;;;;26.48;11.93;;;23.70;38.40;;;;;;6155628;28;84369;-65
2022/03/14 08:45:32;;;;;;;25.63;13.68;;;23.80;38.20;;;;;;6136184;28;82966;-64
2022/03/14 08:48:33;;;;;;;21.25;12.77;;;23.70;38.00;;;;;;6133058;28;83428;-64
2022/03/14 08:51:34;;;;;;;22.08;12.40;;;23.80;37.60;;;;;;6142130;28;83017;-65
2022/03/14 08:54:34;;;;;;;25.17;13.32;;;23.80;37.50;;;;;;6157007;28;84576;-65
2022/03/14 08:57:35;;;;;;;26.88;12.55;;;23.80;37.40;;;;;;6156336;28;83058;-68
2022/03/14 09:00:38;;;;;;;22.40;13.02;;;23.90;37.00;;;;;;6142257;28;83320;-67
2022/03/14 09:03:39;;;;;;;23.23;12.65;;;23.90;36.90;;;;;;6155214;28;82794;-65
2022/03/14 09:06:42;;;;;;;23.15;11.80;;;23.90;36.50;;;;;;6148282;28;84139;-65
2022/03/14 09:09:45;;;;;;;23.05;12.68;;;24.00;36.80;;;;;;6148615;28;84105;-65
2022/03/14 09:12:46;;;;;;;23.63;13.65;;;24.00;36.40;;;;;;6153504;28;84322;-64
2022/03/14 09:15:48;;;;;;;27.25;14.35;;;24.00;36.00;;;;;;6156127;28;84301;-63
2022/03/14 09:18:48;;;;;;;22.98;12.65;;;24.00;36.00;;;;;;6156222;28;84605;-65
2022/03/14 09:21:49;;;;;;;23.50;12.85;;;24.10;36.00;;;;;;6138003;28;84163;-65
2022/03/14 09:24:52;;;;;;;25.15;14.75;;;24.00;35.80;;;;;;6152685;28;83123;-67
2022/03/14 09:27:52;;;;;;;25.00;13.98;;;24.10;35.70;;;;;;6156434;28;83323;-67
2022/03/14 09:30:53;;;;;;;85.60;34.03;;;24.10;35.90;;;;;;6157014;28;83428;-67
2022/03/14 09:33:54;;;;;;;233.32;96.40;;;24.10;35.70;;;;;;6153400;28;84006;-67
2022/03/14 09:36:58;;;;;;;364.50;143.43;;;24.20;35.80;;;;;;6156401;28;83072;-66
2022/03/14 09:39:58;;;;;;;309.67;131.00;;;24.20;36.10;;;;;;6151670;28;85816;-67
2022/03/14 09:42:59;;;;;;;393.33;165.73;;;24.20;36.00;;;;;;6150655;28;85663;-67
2022/03/14 09:46:01;;;;;;;380.58;158.23;;;24.30;36.50;;;;;;6150813;28;85623;-67
2022/03/14 09:49:01;;;;;;;398.67;171.45;;;24.30;36.20;;;;;;6134027;28;85617;-64
2022/03/14 09:52:02;;;;;;;377.00;160.88;;;24.30;36.30;;;;;;6132706;28;85448;-65
2022/03/14 09:55:02;;;;;;;332.95;144.55;;;24.30;36.30;;;;;;6130776;28;87655;-67
2022/03/14 09:58:03;;;;;;;297.35;129.82;;;24.40;36.10;;;;;;6147472;28;85401;-66
2022/03/14 10:01:05;;;;;;;268.77;117.78;;;24.40;36.70;;;;;;6149742;28;85639;-66
2022/03/14 10:04:07;;;;;;;245.05;103.97;;;24.40;37.00;;;;;;6149742;28;86454;-66
2022/03/14 10:07:08;;;;;;;226.90;101.45;;;24.40;36.80;;;;;;6150631;28;85411;-67
2022/03/14 10:10:08;;;;;;;219.50;94.78;;;24.40;36.50;;;;;;6144177;28;85905;-67
2022/03/14 10:13:10;;;;;;;198.20;86.75;;;24.50;36.30;;;;;;6153215;28;90277;-64
2022/03/14 10:16:11;;;;;;;181.80;78.10;;;24.50;36.50;;;;;;6131700;28;83125;-69
2022/03/14 10:19:13;;;;;;;173.50;76.22;;;24.50;36.30;;;;;;6135587;28;83100;-68
2022/03/14 10:22:14;;;;;;;160.02;72.38;;;24.60;36.20;;;;;;6134872;28;83409;-68
2022/03/14 10:25:14;;;;;;;151.05;64.72;;;24.60;36.60;;;;;;6135384;28;83151;-68
2022/03/14 10:28:15;;;;;;;159.85;73.53;;;24.70;36.40;;;;;;6145704;28;83424;-68
2022/03/14 10:31:15;;;;;;;156.43;71.57;;;24.60;36.50;;;;;;6148450;28;83171;-66
2022/03/14 10:34:16;;;;;;;141.90;63.72;;;24.70;36.40;;;;;;6156014;28;83110;-67
2022/03/14 10:37:16;;;;;;;126.95;58.17;;;24.70;36.40;;;;;;6134180;28;83890;-68
2022/03/14 10:40:17;;;;;;;133.38;62.60;;;24.70;36.10;;;;;;6137993;28;84359;-67
2022/03/14 10:43:17;;;;;;;124.47;55.42;;;24.70;36.10;;;;;;6131642;28;84307;-68
2022/03/14 10:46:18;;;;;;;122.65;62.30;;;24.80;36.10;;;;;;6130877;28;84419;-71
2022/03/14 10:49:21;;;;;;;125.53;59.85;;;24.80;36.50;;;;;;6131580;28;87419;-68
2022/03/14 10:52:21;;;;;;;121.45;64.55;;;24.80;36.40;;;;;;6154693;28;83312;-69
2022/03/14 10:55:22;;;;;;;127.35;65.03;;;24.90;36.50;;;;;;6143906;28;83215;-66
2022/03/14 10:58:23;;;;;;;114.22;64.20;;;24.90;36.30;;;;;;6136200;28;84271;-64
2022/03/14 11:01:24;;;;;;;112.07;57.75;;;24.90;36.30;;;;;;6142573;28;84362;-68
2022/03/14 11:04:25;;;;;;;98.57;48.17;;;24.90;36.20;;;;;;6141150;28;82974;-67
2022/03/14 11:07:25;;;;;;;81.57;42.15;;;24.90;36.70;;;;;;6139980;28;83837;-67
2022/03/14 11:10:26;;;;;;;69.55;37.28;;;24.90;37.20;;;;;;6150894;28;83096;-68
2022/03/14 11:13:26;;;;;;;63.90;30.67;;;24.90;37.40;;;;;;6152225;28;82854;-70
2022/03/14 11:16:28;;;;;;;57.97;27.63;;;24.90;37.90;;;;;;6135315;28;84129;-67
2022/03/14 11:19:29;;;;;;;50.70;25.63;;;24.90;38.20;;;;;;6136150;28;82857;-74
2022/03/14 11:22:29;;;;;;;39.95;22.45;;;25.00;38.70;;;;;;6147607;28;82944;-68
2022/03/14 11:25:30;;;;;;;42.90;22.15;;;24.90;39.50;;;;;;6159668;28;83176;-67
2022/03/14 11:28:31;;;;;;;40.88;20.38;;;24.90;39.20;;;;;;6154009;28;84404;-67
2022/03/14 11:31:31;;;;;;;33.67;19.52;;;24.90;39.50;;;;;;6157913;28;83171;-69
2022/03/14 11:34:32;;;;;;;32.83;18.55;;;25.00;39.80;;;;;;6152383;28;83000;-68
2022/03/14 11:37:33;;;;;;;30.42;16.60;;;25.00;40.10;;;;;;6133939;28;82913;-68
2022/03/14 11:40:34;;;;;;;32.90;15.60;;;25.10;40.50;;;;;;6148321;28;83332;-69
2022/03/14 11:43:34;;;;;;;26.58;13.05;;;25.10;41.20;;;;;;6159257;28;83518;-68
2022/03/14 11:46:35;;;;;;;25.50;12.30;;;25.10;41.50;;;;;;6135216;28;83116;-67
2022/03/14 11:49:35;;;;;;;24.48;11.18;;;25.10;41.90;;;;;;6136869;28;83092;-67
2022/03/14 11:52:36;;;;;;;23.10;11.75;;;25.10;41.90;;;;;;6159185;28;83082;-67
2022/03/14 11:55:36;;;;;;;18.58;9.77;;;25.10;41.80;;;;;;6157382;28;84243;-67
2022/03/14 11:58:40;;;;;;;17.75;9.02;;;25.10;41.90;;;;;;6162049;28;84104;-67
2022/03/14 12:01:41;;;;;;;21.77;9.45;;;25.10;41.80;;;;;;6159820;28;80594;-68
2022/03/14 12:04:43;;;;;;;13.98;8.18;;;25.10;41.90;;;;;;6161575;28;81505;-64
2022/03/14 12:07:44;;;;;;;18.27;8.55;;;25.10;42.10;;;;;;6159938;28;81847;-66
2022/03/14 12:10:44;;;;;;;13.00;7.20;;;25.10;42.20;;;;;;6153625;28;80100;-69
2022/03/14 12:13:45;;;;;;;13.85;6.70;;;25.10;42.30;;;;;;6159445;28;80328;-67
2022/03/14 12:16:46;;;;;;;13.65;6.95;;;25.10;42.10;;;;;;6159222;28;81974;-67
2022/03/14 12:19:46;;;;;;;14.13;6.70;;;25.10;41.70;;;;;;6161044;28;81686;-67
2022/03/14 12:22:47;;;;;;;10.93;6.07;;;25.20;41.80;;;;;;6141996;28;80389;-67
2022/03/14 12:25:48;;;;;;;10.77;5.90;;;25.20;41.80;;;;;;6137807;28;80772;-67
2022/03/14 12:28:49;;;;;;;11.30;5.68;;;25.20;41.60;;;;;;6135490;28;80658;-68
2022/03/14 12:31:50;;;;;;;10.88;5.80;;;25.20;41.70;;;;;;6146376;28;80330;-67
2022/03/14 12:34:50;;;;;;;7.72;5.13;;;25.30;42.30;;;;;;6146656;28;80199;-67
2022/03/14 12:37:52;;;;;;;9.93;5.93;;;25.30;41.30;;;;;;6150665;28;81674;-67
2022/03/14 12:40:56;;;;;;;6.88;4.13;;;25.30;42.20;;;;;;6159266;28;82392;-67
2022/03/14 12:43:58;;;;;;;9.95;4.78;;;25.20;41.60;;;;;;6139060;28;81155;-69
2022/03/14 12:47:00;;;;;;;9.00;4.88;;;25.20;42.30;;;;;;6136912;28;81410;-69
2022/03/14 12:50:01;;;;;;;9.88;4.55;;;25.20;42.30;;;;;;6147937;28;80564;-72
2022/03/14 12:53:01;;;;;;;6.15;3.95;;;25.20;41.80;;;;;;6144610;28;80427;-68
2022/03/14 12:56:02;;;;;;;7.82;4.15;;;25.20;41.70;;;;;;6136433;28;80837;-69
2022/03/14 12:59:04;;;;;;;15.23;4.32;;;25.30;42.30;;;;;;6137092;28;80351;-68
2022/03/14 13:02:04;;;;;;;4.82;3.60;;;25.20;42.40;;;;;;6161196;28;80309;-69
2022/03/14 13:05:05;;;;;;;6.80;3.90;;;25.30;42.60;;;;;;6150854;28;80552;-68
2022/03/14 13:08:05;;;;;;;6.85;4.13;;;25.30;42.30;;;;;;6136557;28;80552;-68
2022/03/14 13:11:06;;;;;;;6.88;3.47;;;25.20;42.50;;;;;;6145341;28;80708;-68
2022/03/14 13:14:07;;;;;;;4.95;3.13;;;25.20;42.30;;;;;;6155489;28;81523;-68
2022/03/14 13:17:08;;;;;;;5.68;3.45;;;25.20;42.20;;;;;;6159925;28;80458;-68
2022/03/14 13:20:10;;;;;;;3.53;2.67;;;25.20;42.60;;;;;;6156850;28;81762;-68
2022/03/14 13:23:10;;;;;;;5.38;3.08;;;25.20;42.80;;;;;;6160821;28;80324;-69
2022/03/14 13:26:11;;;;;;;7.45;3.67;;;25.30;42.60;;;;;;6160252;28;80669;-68
2022/03/14 13:29:12;;;;;;;5.10;2.88;;;25.20;42.40;;;;;;6158820;28;80577;-69
2022/03/14 13:32:12;;;;;;;7.20;3.92;;;25.30;42.30;;;;;;6152787;28;80379;-69
2022/03/14 13:35:13;;;;;;;6.57;3.53;;;25.30;42.30;;;;;;6159767;28;81351;-67
2022/03/14 13:38:14;;;;;;;6.15;3.75;;;25.30;42.50;;;;;;6159167;28;87690;-68
2022/03/14 13:41:14;;;;;;;5.03;3.20;;;25.20;42.10;;;;;;6159874;28;80880;-67
2022/03/14 13:44:15;;;;;;;29.30;15.02;;;25.20;41.90;;;;;;6160432;28;80462;-68
2022/03/14 13:47:15;;;;;;;88.13;43.75;;;25.30;42.30;;;;;;6157359;28;83091;-70
2022/03/14 13:50:16;;;;;;;123.90;60.25;;;25.30;42.20;;;;;;6149921;28;83508;-68
2022/03/14 13:53:16;;;;;;;101.05;48.40;;;25.30;42.10;;;;;;6141795;28;82990;-67
2022/03/14 13:56:17;;;;;;;79.95;40.20;;;25.30;42.00;;;;;;6150452;28;83506;-67
2022/03/14 13:59:17;;;;;;;64.78;33.97;;;25.30;41.90;;;;;;6153730;28;83493;-67
2022/03/14 14:02:21;;;;;;;51.60;27.02;;;25.30;41.50;;;;;;6152823;28;83177;-67
2022/03/14 14:05:22;;;;;;;48.72;23.42;;;25.30;41.80;;;;;;6151930;28;82997;-68
2022/03/14 14:08:25;;;;;;;41.15;20.95;;;25.30;42.00;;;;;;6154960;28;85089;-69
2022/03/14 14:11:26;;;;;;;36.63;17.20;;;25.30;41.80;;;;;;6156280;28;84152;-65
2022/03/14 14:14:27;;;;;;;32.20;16.40;;;25.30;42.30;;;;;;6154039;28;82859;-67
2022/03/14 14:17:27;;;;;;;30.50;15.55;;;25.30;42.30;;;;;;6155101;28;83334;-67
2022/03/14 14:20:28;;;;;;;23.92;13.40;;;25.30;42.40;;;;;;6153087;28;83020;-66
2022/03/14 14:23:29;;;;;;;21.05;12.02;;;25.30;42.70;;;;;;6153176;28;86453;-66
2022/03/14 14:26:30;;;;;;;18.77;11.65;;;25.30;42.90;;;;;;6153957;28;84016;-66
2022/03/14 14:29:31;;;;;;;21.20;9.88;;;25.30;42.70;;;;;;6159961;28;83246;-66
2022/03/14 14:32:31;;;;;;;17.05;9.25;;;25.30;42.70;;;;;;6142998;28;83254;-67
2022/03/14 14:35:32;;;;;;;16.90;7.63;;;25.30;42.70;;;;;;6155506;28;81300;-67
2022/03/14 14:38:32;;;;;;;13.80;7.95;;;25.30;42.80;;;;;;6150088;28;80451;-67
2022/03/14 14:41:33;;;;;;;13.77;7.47;;;25.20;42.90;;;;;;6138917;28;80907;-67
2022/03/14 14:44:34;;;;;;;13.20;6.28;;;25.20;43.00;;;;;;6139198;28;80466;-66
2022/03/14 14:47:35;;;;;;;10.63;5.43;;;25.10;43.20;;;;;;6159461;28;80497;-67
2022/03/14 14:50:39;;;;;;;12.82;5.43;;;25.20;43.40;;;;;;6163167;28;82055;-66
2022/03/14 14:53:41;;;;;;;7.47;4.88;;;25.20;43.40;;;;;;6162024;28;81445;-68
2022/03/14 14:56:42;;;;;;;10.82;5.53;;;25.20;43.60;;;;;;6162291;28;80639;-70
2022/03/14 14:59:42;;;;;;;10.77;5.22;;;25.10;42.50;;;;;;6162757;28;81000;-66
2022/03/14 15:02:43;;;;;;;12.57;5.00;;;25.10;42.40;;;;;;6162700;28;80266;-68
2022/03/14 15:05:45;;;;;;;7.43;4.30;;;25.10;42.40;;;;;;6157496;28;80020;-69
2022/03/14 15:08:46;;;;;;;10.95;5.28;;;25.10;42.50;;;;;;6141231;28;80881;-69
2022/03/14 15:11:46;;;;;;;6.78;4.13;;;25.10;42.60;;;;;;6154683;28;80430;-67
2022/03/14 15:14:47;;;;;;;5.45;3.25;;;25.00;42.90;;;;;;6162970;28;80336;-68
2022/03/14 15:17:48;;;;;;;5.57;3.83;;;25.00;42.90;;;;;;6162538;28;80601;-69